Terminal Aerodrome Forecast
Issued by NWS Denver/Boulder, CO

Home | Current Version | Previous Version | Text Only | Print | Product List | Glossary On
Versions: 1 2 3 4 5 6 7 8 9 10 11 12 13 14 15 16 17 18 19 20 21 22 23 24 25 26 27 28 29 30 31 32 33 34 35 36 37 38 39 40 41 42 43 44 45 46 47 48 49 50
000
FTUS45 KBOU 280603 AAA
TAFDEN
TAF AMD
KDEN 280603Z 2806/2912 19006KT P6SM SCT120
     FM281400 VRB05KT P6SM SCT120
     FM281700 33010KT P6SM FEW050 SCT090 BKN150
     FM282100 33015KT P6SM SCT070 BKN110
      TEMPO 2821/2824 VRB15G30KT -TSRA BKN050CB
     FM290100 30010KT P6SM SCT080 SCT150
     FM290300 23008KT P6SM SCT150=

USA.gov is the U.S. government's official web portal to all federal, state and local government web resources and services.